Time;durP1;ratioP1;P1;durP2;ratioP2;P2;SDS_P1;SDS_P2;PMS_P1;PMS_P2;Temp;Humidity;BMP_temperature;BMP_pressure;BME280_temperature;BME280_humidity;BME280_pressure;Samples;Min_cycle;Max_cycle;Signal;HPM_P1;HPM_P2
2023/06/17 00:02:00;;;;;;;7.80;5.50;;;;;;;20.64;51.26;99652.13;105658;1254;66004;-76
2023/06/17 00:04:27;;;;;;;7.60;5.00;;;;;;;20.59;51.26;99654.20;105468;1255;59556;-77
2023/06/17 00:06:55;;;;;;;6.60;5.20;;;;;;;20.55;51.46;99658.89;105630;1256;63781;-76
2023/06/17 00:09:22;;;;;;;6.90;5.50;;;;;;;20.49;51.78;99655.54;105576;1255;59717;-77
2023/06/17 00:11:51;;;;;;;10.10;5.80;;;;;;;20.43;51.86;99655.72;105650;1260;59731;-78
2023/06/17 00:14:20;;;;;;;8.10;6.20;;;;;;;20.39;52.05;99658.27;105637;1255;65694;-76
2023/06/17 00:16:48;;;;;;;8.80;6.50;;;;;;;20.39;52.08;99659.29;105579;1261;60500;-78
2023/06/17 00:19:16;;;;;;;9.50;6.20;;;;;;;20.37;52.17;99656.31;105539;1256;65049;-82
2023/06/17 00:21:49;;;;;;;10.60;6.50;;;;;;;20.35;52.38;99653.32;105442;1262;59714;-76
2023/06/17 00:24:17;;;;;;;;;;;;;;;20.32;52.56;99654.48;105423;1256;59651;-77
2023/06/17 00:26:45;;;;;;;7.30;6.40;;;;;;;20.26;52.63;99653.77;105504;1260;66971;-77
2023/06/17 00:29:13;;;;;;;8.00;6.10;;;;;;;20.20;52.64;99653.25;105369;1257;60053;-77
2023/06/17 00:31:40;;;;;;;7.00;6.30;;;;;;;20.17;52.79;99654.80;105440;1260;66570;-75
2023/06/17 00:34:08;;;;;;;6.90;6.20;;;;;;;20.14;52.95;99656.44;105551;1259;59650;-76
2023/06/17 00:36:36;;;;;;;10.20;6.80;;;;;;;20.10;53.06;99659.62;105468;1262;59576;-77
2023/06/17 00:39:03;;;;;;;10.10;6.90;;;;;;;20.07;53.18;99657.44;105648;1258;66501;-77
2023/06/17 00:41:31;;;;;;;6.90;6.20;;;;;;;20.04;53.24;99655.70;105681;1259;59650;-77
2023/06/17 00:43:59;;;;;;;7.80;6.00;;;;;;;20.03;53.48;99658.88;105429;1261;65172;-76
2023/06/17 00:46:41;;;;;;;7.80;6.30;;;;;;;20.01;53.50;99660.24;105658;1258;59602;-77
2023/06/17 00:49:12;;;;;;;9.10;6.50;;;;;;;20.00;53.52;99656.48;105457;1260;59530;-76
2023/06/17 00:51:39;;;;;;;7.60;6.60;;;;;;;19.98;53.62;99654.37;105488;1256;64643;-77
2023/06/17 00:54:08;;;;;;;7.60;6.70;;;;;;;19.95;53.57;99653.85;105484;1254;60458;-77
2023/06/17 00:56:36;;;;;;;8.50;7.20;;;;;;;19.92;53.77;99656.81;105676;1256;65603;-76
2023/06/17 00:59:04;;;;;;;10.00;7.10;;;;;;;19.88;53.88;99655.76;105575;1256;59696;-77
2023/06/17 01:01:35;;;;;;;8.00;7.20;;;;;;;19.84;53.75;99652.61;105606;1258;59647;-77
2023/06/17 01:04:04;;;;;;;9.70;7.60;;;;;;;19.82;53.92;99652.45;105524;1254;65558;-76
2023/06/17 01:06:45;;;;;;;10.90;7.40;;;;;;;19.79;53.95;99649.21;105655;1260;59613;-75
2023/06/17 01:09:16;;;;;;;7.70;6.60;;;;;;;19.77;54.08;99648.98;105454;1260;65549;-76
2023/06/17 01:11:43;;;;;;;10.00;7.40;;;;;;;19.74;54.06;99649.64;105612;1258;60483;-77
2023/06/17 01:14:11;;;;;;;14.40;7.30;;;;;;;19.72;54.10;99651.16;105657;1254;60513;-77
2023/06/17 01:16:43;;;;;;;8.90;7.50;;;;;;;19.70;54.25;99652.92;105580;1256;66638;-77
2023/06/17 01:19:20;;;;;;;10.20;7.40;;;;;;;19.66;54.22;99653.26;105528;1256;60362;-77
2023/06/17 01:21:54;;;;;;;10.70;7.90;;;;;;;19.61;54.54;99647.30;105587;1256;66353;-76
2023/06/17 01:24:28;;;;;;;10.00;7.80;;;;;;;19.56;54.46;99647.71;105540;1258;60425;-77
2023/06/17 01:26:57;;;;;;;9.30;8.00;;;;;;;19.52;54.64;99652.51;105580;1256;60475;-78
2023/06/17 01:29:26;;;;;;;11.40;7.10;;;;;;;19.50;54.81;99647.34;105762;1254;66272;-76
2023/06/17 01:31:56;;;;;;;10.50;7.00;;;;;;;19.46;54.92;99652.01;105605;1260;60419;-77
2023/06/17 01:34:32;;;;;;;8.20;6.80;;;;;;;19.44;54.93;99648.91;105449;1254;65598;-77
2023/06/17 01:37:02;;;;;;;9.00;7.10;;;;;;;19.44;55.04;99651.70;105450;1257;60465;-76
2023/06/17 01:39:30;;;;;;;8.10;6.90;;;;;;;19.43;55.12;99651.30;105373;1255;60446;-76
2023/06/17 01:41:58;;;;;;;9.10;7.10;;;;;;;19.41;55.09;99652.65;105288;1263;67906;-76
2023/06/17 01:44:26;;;;;;;7.70;6.80;;;;;;;19.40;55.11;99655.85;105628;1256;61094;-76
2023/06/17 01:46:54;;;;;;;10.20;6.60;;;;;;;19.40;55.13;99655.89;105559;1261;65221;-75
2023/06/17 01:49:22;;;;;;;8.90;6.40;;;;;;;19.40;55.18;99662.61;105558;1256;60486;-77
2023/06/17 01:51:49;;;;;;;8.90;6.60;;;;;;;19.41;55.30;99664.93;105692;1259;60948;-76
2023/06/17 01:54:17;;;;;;;7.80;6.40;;;;;;;19.45;55.40;99659.83;105729;1258;67760;-77
2023/06/17 01:56:44;;;;;;;9.10;6.50;;;;;;;19.47;55.29;99657.45;105663;1256;60560;-76
2023/06/17 01:59:12;;;;;;;7.70;6.00;;;;;;;19.49;55.33;99660.09;105648;1256;65286;-75
2023/06/17 02:01:40;;;;;;;12.40;6.60;;;;;;;19.51;55.20;99657.73;105705;1259;60481;-77
2023/06/17 02:04:07;;;;;;;12.10;6.60;;;;;;;19.52;55.02;99659.18;105510;1256;60348;-76
2023/06/17 02:06:37;;;;;;;14.20;6.60;;;;;;;19.52;55.05;99658.60;105539;1261;66853;-75
2023/06/17 02:09:06;;;;;;;9.70;6.30;;;;;;;19.52;55.22;99657.04;105438;1256;60893;-75
2023/06/17 02:11:34;;;;;;;9.50;6.60;;;;;;;19.53;55.10;99659.59;105773;1256;66196;-76
2023/06/17 02:14:01;;;;;;;8.30;6.10;;;;;;;19.54;54.96;99659.19;105690;1259;60391;-77
2023/06/17 02:16:29;;;;;;;8.20;6.20;;;;;;;19.56;54.87;99661.19;105684;1258;60320;-77
2023/06/17 02:18:57;;;;;;;9.40;6.40;;;;;;;19.57;54.91;99658.20;105423;1254;66825;-76
2023/06/17 02:21:24;;;;;;;11.00;6.30;;;;;;;19.57;54.96;99656.70;105716;1256;60534;-77
2023/06/17 02:23:53;;;;;;;9.40;6.30;;;;;;;19.57;54.86;99659.55;105638;1260;65630;-76
2023/06/17 02:26:21;;;;;;;9.60;6.40;;;;;;;19.58;54.71;99657.54;105628;1260;60493;-76
2023/06/17 02:28:48;;;;;;;8.90;6.40;;;;;;;19.61;54.67;99656.01;105661;1253;60566;-76
2023/06/17 02:31:16;;;;;;;9.40;6.30;;;;;;;19.63;54.79;99659.15;105563;1257;66369;-76
2023/06/17 02:33:43;;;;;;;8.20;6.90;;;;;;;19.63;54.69;99660.96;105741;1259;60482;-76
2023/06/17 02:36:14;;;;;;;9.00;6.40;;;;;;;19.63;54.83;99662.08;105728;1256;65500;-77
2023/06/17 02:38:41;;;;;;;9.50;6.90;;;;;;;19.63;54.91;99663.43;105462;1254;60650;-76
2023/06/17 02:41:09;;;;;;;8.90;6.50;;;;;;;19.65;54.97;99664.23;105588;1256;60524;-77
2023/06/17 02:43:37;;;;;;;8.00;6.40;;;;;;;19.67;54.91;99659.98;105565;1259;67707;-76
2023/06/17 02:46:04;;;;;;;8.60;6.60;;;;;;;19.69;54.95;99657.66;105583;1258;60411;-77
2023/06/17 02:48:32;;;;;;;8.00;6.00;;;;;;;19.71;55.09;99658.00;105547;1256;65175;-75
2023/06/17 02:50:59;;;;;;;7.30;6.40;;;;;;;19.71;55.11;99654.63;105926;1258;60384;-75
2023/06/17 02:53:27;;;;;;;8.50;6.60;;;;;;;19.73;55.18;99658.21;105409;1255;60542;-76
2023/06/17 02:55:55;;;;;;;7.90;6.20;;;;;;;19.76;55.34;99657.30;105491;1260;67592;-75
2023/06/17 02:58:25;;;;;;;7.80;6.50;;;;;;;19.80;55.33;99656.77;105682;1258;60628;-75
2023/06/17 03:00:54;;;;;;;7.90;6.00;;;;;;;19.87;55.25;99655.52;105681;1258;65619;-76
2023/06/17 03:03:33;;;;;;;8.90;6.00;;;;;;;19.93;55.16;99659.13;105789;1254;60597;-76
2023/06/17 03:06:03;;;;;;;9.20;6.60;;;;;;;19.98;55.31;99660.60;105730;1258;60352;-75
2023/06/17 03:08:34;;;;;;;8.00;6.50;;;;;;;20.05;55.28;99660.70;105554;1257;67388;-76
2023/06/17 03:11:02;;;;;;;8.80;6.10;;;;;;;20.08;55.27;99658.61;105633;1254;60984;-82
2023/06/17 03:13:30;;;;;;;11.50;6.10;;;;;;;20.12;55.25;99658.74;105519;1258;66660;-77
2023/06/17 03:15:59;;;;;;;8.90;6.20;;;;;;;20.16;55.22;99654.55;105401;1257;60541;-76
2023/06/17 03:18:28;;;;;;;8.60;6.40;;;;;;;20.22;55.22;99657.88;105586;1256;61241;-76
2023/06/17 03:20:55;;;;;;;11.10;6.10;;;;;;;20.28;55.05;99658.27;105770;1254;66745;-78
2023/06/17 03:23:24;;;;;;;9.30;6.40;;;;;;;20.36;55.03;99657.50;105726;1256;61403;-76
2023/06/17 03:25:52;;;;;;;7.00;5.60;;;;;;;20.43;54.91;99658.15;105605;1259;66053;-75
2023/06/17 03:28:20;;;;;;;8.00;6.40;;;;;;;20.49;54.87;99659.27;105700;1258;60543;-75
2023/06/17 03:30:47;;;;;;;7.80;6.50;;;;;;;20.58;54.62;99658.65;105730;1261;60416;-75
2023/06/17 03:33:15;;;;;;;9.30;6.20;;;;;;;20.65;54.58;99657.05;105520;1254;67382;-76
2023/06/17 03:35:43;;;;;;;11.80;6.30;;;;;;;20.71;54.59;99659.86;105681;1257;60875;-74
2023/06/17 03:38:11;;;;;;;9.70;5.90;;;;;;;20.75;54.71;99654.84;105787;1261;67343;-74
2023/06/17 03:40:38;;;;;;;8.20;6.00;;;;;;;20.80;54.92;99657.48;105695;1260;60544;-75
2023/06/17 03:43:06;;;;;;;7.20;5.40;;;;;;;20.87;54.86;99654.14;105765;1260;60522;-75
2023/06/17 03:45:35;;;;;;;7.20;5.50;;;;;;;20.96;54.76;99653.77;105464;1261;67805;-76
2023/06/17 03:48:03;;;;;;;7.60;5.30;;;;;;;21.06;54.47;99655.05;105387;1260;60503;-75
2023/06/17 03:50:33;;;;;;;9.50;5.30;;;;;;;21.18;54.11;99654.42;105806;1258;65291;-76
2023/06/17 03:53:00;;;;;;;9.00;5.10;;;;;;;21.29;53.92;99650.71;105495;1256;60462;-74
2023/06/17 03:55:29;;;;;;;6.10;5.20;;;;;;;21.40;53.50;99651.16;105486;1254;60354;-76
2023/06/17 03:57:56;;;;;;;5.70;4.60;;;;;;;21.51;52.70;99647.34;105709;1258;67522;-75
2023/06/17 04:00:26;;;;;;;8.60;5.00;;;;;;;21.63;51.96;99650.73;105757;1256;60868;-76
2023/06/17 04:02:55;;;;;;;9.50;4.80;;;;;;;21.75;51.13;99651.23;105335;1258;66842;-76
2023/06/17 04:05:32;;;;;;;8.60;5.20;;;;;;;21.86;50.46;99652.68;105588;1259;60546;-77
2023/06/17 04:08:02;;;;;;;7.40;4.90;;;;;;;21.97;50.30;99654.38;105552;1256;60598;-79
2023/06/17 04:10:30;;;;;;;6.60;5.00;;;;;;;22.09;50.05;99653.58;105732;1262;66869;-80
2023/06/17 04:12:58;;;;;;;6.80;4.80;;;;;;;22.17;49.34;99654.45;105618;1256;61011;-81
2023/06/17 04:15:26;;;;;;;6.60;4.70;;;;;;;22.26;48.90;99655.56;105874;1258;65225;-75
2023/06/17 04:17:54;;;;;;;10.50;4.40;;;;;;;22.37;48.49;99658.64;105706;1256;60418;-76
2023/06/17 04:20:26;;;;;;;5.80;4.50;;;;;;;22.48;48.14;99660.70;105658;1259;60462;-76
2023/06/17 04:22:53;;;;;;;4.40;4.00;;;;;;;22.59;47.97;99660.34;105622;1261;68380;-75
2023/06/17 04:25:22;;;;;;;6.40;4.50;;;;;;;22.67;47.44;99663.33;105620;1256;60882;-77
2023/06/17 04:27:53;;;;;;;8.50;4.70;;;;;;;22.77;47.17;99659.25;105514;1257;66866;-80
2023/06/17 04:30:24;;;;;;;8.80;4.50;;;;;;;22.87;47.00;99658.13;105473;1256;60447;-78
2023/06/17 04:32:58;;;;;;;6.20;4.60;;;;;;;22.96;46.66;99658.64;105497;1262;60433;-81
2023/06/17 04:35:26;;;;;;;9.90;4.70;;;;;;;23.05;46.47;99659.06;105715;1256;66400;-79
2023/06/17 04:37:55;;;;;;;8.40;4.70;;;;;;;23.14;46.21;99660.67;105578;1257;61486;-81
2023/06/17 04:40:23;;;;;;;6.30;4.40;;;;;;;23.21;45.78;99658.21;105449;1254;64677;-81
2023/06/17 04:42:51;;;;;;;8.00;4.50;;;;;;;23.30;45.50;99662.44;105638;1256;60457;-75
2023/06/17 04:45:20;;;;;;;7.10;5.00;;;;;;;23.38;45.23;99664.27;105802;1258;60441;-73
2023/06/17 04:47:54;;;;;;;16.60;4.90;;;;;;;23.47;44.91;99666.42;105660;1257;66841;-73
2023/06/17 04:50:23;;;;;;;7.10;4.30;;;;;;;23.57;44.58;99671.59;105504;1261;60518;-75
2023/06/17 04:52:51;;;;;;;8.70;4.80;;;;;;;23.67;44.24;99674.91;105578;1256;66772;-75
2023/06/17 04:55:22;;;;;;;7.90;4.30;;;;;;;23.75;43.72;99670.59;105551;1260;60436;-72
2023/06/17 04:57:50;;;;;;;7.60;4.30;;;;;;;23.83;43.37;99673.04;105393;1256;60520;-75
2023/06/17 05:00:33;;;;;;;6.20;4.60;;;;;;;23.91;43.13;99672.77;105831;1254;66404;-73
2023/06/17 05:03:01;;;;;;;7.00;4.30;;;;;;;23.98;43.14;99672.77;105812;1256;60464;-72
2023/06/17 05:05:29;;;;;;;8.50;4.20;;;;;;;24.06;43.19;99677.23;105771;1257;65176;-73
2023/06/17 05:07:57;;;;;;;5.00;4.50;;;;;;;24.15;43.23;99681.08;105525;1258;60499;-73
2023/06/17 05:10:24;;;;;;;9.40;4.30;;;;;;;24.23;43.13;99681.88;105684;1254;60454;-73
2023/06/17 05:12:52;;;;;;;5.90;4.20;;;;;;;24.31;42.80;99683.83;105526;1257;67831;-73
2023/06/17 05:15:20;;;;;;;5.70;3.90;;;;;;;24.39;42.66;99684.61;105615;1257;60845;-73
2023/06/17 05:17:48;;;;;;;5.50;4.20;;;;;;;24.46;42.24;99683.14;105500;1257;66309;-73
2023/06/17 05:20:16;;;;;;;9.40;4.50;;;;;;;24.51;42.07;99687.06;105590;1261;60493;-72
2023/06/17 05:22:44;;;;;;;5.60;4.00;;;;;;;24.57;41.81;99686.51;105482;1256;61110;-73
2023/06/17 05:25:11;;;;;;;4.80;3.80;;;;;;;24.65;41.70;99689.80;105657;1260;66317;-73
2023/06/17 05:27:39;;;;;;;5.10;4.10;;;;;;;24.74;41.66;99687.97;105407;1257;60542;-73
2023/06/17 05:30:09;;;;;;;5.80;4.60;;;;;;;24.81;41.51;99688.77;105588;1256;67035;-72
2023/06/17 05:32:41;;;;;;;7.80;4.60;;;;;;;24.90;41.48;99687.84;105365;1261;60500;-74
2023/06/17 05:35:08;;;;;;;7.70;4.50;;;;;;;24.99;41.13;99688.51;105536;1255;60607;-74
2023/06/17 05:37:36;;;;;;;7.00;4.60;;;;;;;25.06;40.88;99689.56;105312;1261;67409;-73
2023/06/17 05:40:05;;;;;;;7.20;4.90;;;;;;;25.12;40.41;99692.09;105428;1260;60988;-73
2023/06/17 05:42:33;;;;;;;7.20;4.50;;;;;;;25.20;40.01;99693.75;105413;1259;65608;-73
2023/06/17 05:45:01;;;;;;;8.50;4.40;;;;;;;25.26;39.91;99693.72;105338;1256;60542;-73
2023/06/17 05:47:30;;;;;;;6.90;4.40;;;;;;;25.32;39.85;99690.09;105628;1261;60508;-72
2023/06/17 05:49:58;;;;;;;7.50;4.30;;;;;;;25.40;39.97;99690.49;106090;1257;67586;-73
2023/06/17 05:52:26;;;;;;;8.60;4.40;;;;;;;25.49;40.10;99689.83;105620;1259;60880;-72
2023/06/17 05:54:54;;;;;;;5.80;4.00;;;;;;;25.57;40.03;99690.02;105701;1256;66371;-70
2023/06/17 05:57:21;;;;;;;8.10;4.50;;;;;;;25.67;39.92;99694.71;105542;1257;60513;-70
2023/06/17 05:59:49;;;;;;;6.20;4.30;;;;;;;25.77;39.74;99695.33;105907;1256;63736;-72
2023/06/17 06:02:17;;;;;;;5.10;4.50;;;;;;;25.86;39.32;99694.88;105653;1256;66369;-73
2023/06/17 06:04:47;;;;;;;8.70;4.70;;;;;;;25.94;39.00;99693.54;105680;1260;69038;-72
2023/06/17 06:07:14;;;;;;;5.90;4.60;;;;;;;26.03;38.70;99693.75;105601;1259;66912;-71
2023/06/17 06:09:42;;;;;;;5.40;4.60;;;;;;;26.14;38.61;99694.77;105439;1258;60480;-71
2023/06/17 06:12:10;;;;;;;5.80;4.20;;;;;;;26.23;38.69;99692.78;105852;1254;60373;-75
2023/06/17 06:14:38;;;;;;;7.60;4.40;;;;;;;26.33;38.49;99691.08;105694;1255;66833;-73
2023/06/17 06:17:06;;;;;;;8.10;4.40;;;;;;;26.41;38.06;99688.88;106013;1258;61013;-73
2023/06/17 06:19:33;;;;;;;10.00;4.30;;;;;;;26.48;37.96;99689.02;105707;1259;66659;-73
2023/06/17 06:22:01;;;;;;;7.70;4.50;;;;;;;26.55;37.90;99685.91;105747;1260;60517;-73
2023/06/17 06:24:28;;;;;;;7.00;4.30;;;;;;;26.60;37.83;99686.16;105575;1260;60376;-73
2023/06/17 06:26:57;;;;;;;6.40;3.90;;;;;;;26.67;38.09;99684.65;106014;1256;66695;-72
2023/06/17 06:29:24;;;;;;;10.60;4.10;;;;;;;26.76;37.92;99687.25;105781;1256;61239;-75
2023/06/17 06:31:52;;;;;;;16.00;4.90;;;;;;;26.84;37.51;99687.98;105910;1257;65249;-73
2023/06/17 06:34:20;;;;;;;6.40;4.90;;;;;;;26.92;37.32;99690.98;105667;1260;60420;-74
2023/06/17 06:36:47;;;;;;;6.30;4.50;;;;;;;26.96;37.28;99688.46;105780;1254;60455;-74
2023/06/17 06:39:15;;;;;;;14.30;4.30;;;;;;;27.00;37.54;99692.56;105820;1259;66769;-74
2023/06/17 06:41:43;;;;;;;9.30;4.50;;;;;;;27.10;37.47;99692.40;105841;1262;60481;-73
2023/06/17 06:44:25;;;;;;;9.00;4.40;;;;;;;27.19;37.23;99690.70;105660;1256;65665;-74
2023/06/17 06:46:54;;;;;;;8.90;4.30;;;;;;;27.27;37.07;99687.09;105689;1260;60420;-74
2023/06/17 06:49:22;;;;;;;8.40;4.30;;;;;;;27.36;36.83;99688.05;105728;1254;60485;-75
2023/06/17 06:51:50;;;;;;;7.60;4.60;;;;;;;27.46;36.56;99691.23;105884;1261;67933;-75
2023/06/17 06:54:17;;;;;;;8.30;4.00;;;;;;;27.54;36.48;99688.13;105490;1260;60542;-75
2023/06/17 06:56:45;;;;;;;5.70;4.20;;;;;;;27.66;36.63;99687.78;105453;1257;65598;-75
2023/06/17 06:59:13;;;;;;;10.50;4.50;;;;;;;27.79;36.32;99686.35;105412;1256;60524;-75
2023/06/17 07:01:40;;;;;;;5.90;4.20;;;;;;;27.91;35.95;99683.84;105652;1259;60349;-75
2023/06/17 07:04:08;;;;;;;6.70;4.40;;;;;;;28.04;35.57;99682.05;105651;1254;66760;-75
2023/06/17 07:06:36;;;;;;;6.70;4.30;;;;;;;28.15;35.47;99680.83;105471;1254;60561;-75
2023/06/17 07:09:06;;;;;;;6.40;4.10;;;;;;;28.24;35.09;99679.61;105656;1259;65651;-75
2023/06/17 07:11:34;;;;;;;10.50;3.80;;;;;;;28.32;35.13;99679.90;105959;1256;60425;-75
2023/06/17 07:14:02;;;;;;;8.30;3.90;;;;;;;28.43;35.31;99677.63;105513;1257;60508;-75
2023/06/17 07:16:30;;;;;;;8.70;4.40;;;;;;;28.56;35.25;99679.89;105645;1256;68030;-75
2023/06/17 07:18:58;;;;;;;11.20;4.30;;;;;;;28.72;35.04;99683.84;105523;1259;60434;-75
2023/06/17 07:21:26;;;;;;;9.00;3.90;;;;;;;28.83;34.78;99683.58;105896;1260;65238;-75
2023/06/17 07:23:53;;;;;;;5.40;3.80;;;;;;;28.91;34.42;99687.80;105401;1261;60558;-75
2023/06/17 07:26:21;;;;;;;5.60;3.90;;;;;;;28.99;33.97;99687.37;105637;1258;61041;-75
2023/06/17 07:28:49;;;;;;;9.10;3.60;;;;;;;29.05;33.44;99690.81;105633;1254;67581;-74
2023/06/17 07:31:17;;;;;;;8.50;3.80;;;;;;;29.14;33.59;99689.77;105675;1258;61040;-75
2023/06/17 07:33:44;;;;;;;6.90;4.20;;;;;;;29.24;33.69;99687.15;105356;1257;65600;-75
2023/06/17 07:36:12;;;;;;;6.10;3.70;;;;;;;29.36;33.36;99688.48;105561;1259;61415;-75
2023/06/17 07:38:40;;;;;;;8.10;3.70;;;;;;;29.46;33.07;99689.80;105321;1259;60586;-75
2023/06/17 07:41:08;;;;;;;6.40;3.70;;;;;;;29.54;33.09;99688.56;105505;1259;68026;-75
2023/06/17 07:43:36;;;;;;;5.10;3.80;;;;;;;29.64;32.56;99689.88;105712;1261;60600;-75
2023/06/17 07:46:03;;;;;;;5.30;3.60;;;;;;;29.75;32.19;99686.17;105631;1260;65634;-75
2023/06/17 07:48:34;;;;;;;5.50;3.80;;;;;;;29.82;32.02;99684.68;105302;1259;60547;-76
2023/06/17 07:51:02;;;;;;;6.00;3.50;;;;;;;29.84;32.08;99683.08;105454;1260;61030;-76
2023/06/17 07:53:29;;;;;;;8.20;3.70;;;;;;;29.88;32.37;99684.01;105510;1259;66731;-76
2023/06/17 07:55:57;;;;;;;6.60;3.80;;;;;;;29.98;32.19;99683.02;105416;1260;60515;-76
2023/06/17 07:58:24;;;;;;;5.60;3.70;;;;;;;30.08;31.75;99680.90;105537;1257;65438;-76
2023/06/17 08:00:52;;;;;;;6.70;3.70;;;;;;;30.14;31.45;99682.73;105683;1256;60336;-76
2023/06/17 08:03:20;;;;;;;10.80;4.00;;;;;;;30.22;31.80;99678.35;105608;1254;60465;-76
2023/06/17 08:05:48;;;;;;;4.80;3.50;;;;;;;30.33;31.73;99678.16;105502;1259;66624;-75
2023/06/17 08:08:16;;;;;;;8.20;3.90;;;;;;;30.44;31.62;99677.30;105568;1259;60335;-76
2023/06/17 08:10:44;;;;;;;4.80;3.80;;;;;;;30.55;31.50;99676.35;105373;1256;66718;-76
2023/06/17 08:13:11;;;;;;;6.00;3.70;;;;;;;30.65;31.06;99679.94;105459;1261;60539;-76
2023/06/17 08:15:39;;;;;;;4.80;3.70;;;;;;;30.73;30.87;99679.89;105693;1259;60527;-76
2023/06/17 08:18:07;;;;;;;5.00;3.50;;;;;;;30.82;30.83;99679.02;105654;1259;63817;-75
2023/06/17 08:20:36;;;;;;;7.50;3.70;;;;;;;30.90;30.33;99672.39;105308;1263;60382;-76
2023/06/17 08:23:05;;;;;;;8.50;4.10;;;;;;;30.98;30.33;99678.81;105355;1259;66146;-76
2023/06/17 08:25:33;;;;;;;4.20;3.80;;;;;;;31.07;29.77;99674.52;105500;1259;60464;-76
2023/06/17 08:28:01;;;;;;;4.10;3.60;;;;;;;31.13;30.07;99679.30;105569;1254;60310;-75
2023/06/17 08:30:28;;;;;;;5.30;3.50;;;;;;;31.20;29.75;99677.52;105465;1254;66441;-75
2023/06/17 08:32:57;;;;;;;5.70;3.40;;;;;;;31.29;29.77;99678.01;105613;1258;61003;-76
2023/06/17 08:35:25;;;;;;;4.00;3.40;;;;;;;31.36;29.10;99678.71;105692;1256;66282;-77
2023/06/17 08:37:53;;;;;;;7.70;3.60;;;;;;;31.42;28.93;99676.40;105736;1260;60361;-77
2023/06/17 08:40:21;;;;;;;6.10;3.90;;;;;;;31.49;28.87;99676.50;105758;1260;60323;-76
2023/06/17 08:42:52;;;;;;;7.50;3.90;;;;;;;31.58;28.80;99678.11;105879;1255;66091;-76
2023/06/17 08:45:19;;;;;;;10.70;3.90;;;;;;;31.69;29.02;99682.06;105707;1253;60492;-76
2023/06/17 08:47:47;;;;;;;4.90;3.60;;;;;;;31.78;28.98;99681.58;105451;1259;66261;-76
2023/06/17 08:50:15;;;;;;;6.30;3.50;;;;;;;31.82;28.84;99682.98;105857;1256;60324;-76
2023/06/17 08:52:42;;;;;;;9.70;3.80;;;;;;;31.87;28.77;99682.75;105904;1260;60393;-77
2023/06/17 08:55:10;;;;;;;6.40;3.80;;;;;;;31.95;28.61;99685.95;105573;1260;67373;-76
2023/06/17 08:57:38;;;;;;;5.00;3.70;;;;;;;32.02;28.41;99682.25;105599;1264;60439;-79
2023/06/17 09:00:08;;;;;;;6.50;3.60;;;;;;;32.06;28.30;99682.02;105549;1257;65583;-76
2023/06/17 09:02:37;;;;;;;5.30;3.50;;;;;;;32.12;28.03;99684.01;105613;1261;60529;-76
2023/06/17 09:05:05;;;;;;;12.70;3.30;;;;;;;32.20;27.83;99684.63;105651;1259;60448;-79
2023/06/17 09:07:32;;;;;;;6.20;3.60;;;;;;;32.28;27.73;99680.39;105518;1259;66867;-76
2023/06/17 09:10:07;;;;;;;6.00;3.30;;;;;;;32.38;27.44;99676.52;105562;1260;60643;-77
2023/06/17 09:12:38;;;;;;;4.50;3.60;;;;;;;32.51;27.60;99673.10;105798;1254;66743;-77
2023/06/17 09:15:07;;;;;;;4.20;3.30;;;;;;;32.64;27.61;99669.95;105554;1260;224311;-76
2023/06/17 09:17:36;;;;;;;6.90;3.60;;;;;;;32.72;27.35;99673.06;105654;1254;60352;-75
2023/06/17 09:20:14;;;;;;;6.20;3.50;;;;;;;32.79;27.13;99668.98;105570;1255;66740;-76
2023/06/17 09:22:44;;;;;;;7.00;4.00;;;;;;;32.88;27.16;99665.09;105523;1261;60965;-76
2023/06/17 09:25:14;;;;;;;4.90;3.80;;;;;;;32.96;27.25;99665.08;105668;1257;66736;-76
2023/06/17 09:27:46;;;;;;;9.30;3.50;;;;;;;33.06;26.95;99664.66;105728;1261;60778;-76
2023/06/17 09:30:35;;;;;;;10.50;3.60;;;;;;;33.20;26.90;99664.15;105479;1254;60410;-76
2023/06/17 09:33:04;;;;;;;6.40;3.80;;;;;;;33.36;26.55;99663.30;105666;1254;68067;-76
2023/06/17 09:35:33;;;;;;;39.20;4.10;;;;;;;33.42;26.24;99660.52;105533;1261;60806;-76
2023/06/17 09:38:04;;;;;;;4.90;3.30;;;;;;;33.54;26.68;99659.84;105688;1259;66484;-76
2023/06/17 09:40:32;;;;;;;9.40;3.70;;;;;;;33.76;26.78;99656.91;105795;1259;60536;-76
2023/06/17 09:43:01;;;;;;;6.40;3.70;;;;;;;34.00;26.15;99661.39;105715;1254;60522;-76
2023/06/17 09:46:02;;;;;;;4.50;3.60;;;;;;;34.20;25.15;99656.24;105734;1260;67179;-76
2023/06/17 09:48:35;;;;;;;5.10;3.60;;;;;;;34.19;25.29;99657.11;105805;1254;60334;-76
2023/06/17 09:51:05;;;;;;;8.40;3.40;;;;;;;34.17;25.06;99657.56;105782;1254;66282;-75
2023/06/17 09:53:33;;;;;;;11.80;3.80;;;;;;;34.19;25.19;99656.73;105730;1257;60413;-75
2023/06/17 09:56:04;;;;;;;15.40;3.70;;;;;;;34.18;25.06;99658.06;105475;1260;60512;-76
2023/06/17 09:58:32;;;;;;;10.40;3.40;;;;;;;34.14;25.42;99654.95;105339;1263;67857;-76
2023/06/17 10:01:04;;;;;;;6.10;3.40;;;;;;;34.20;25.57;99658.29;105680;1254;60352;-76
2023/06/17 10:03:33;;;;;;;12.80;3.70;;;;;;;34.28;25.51;99657.08;105737;1260;66698;-76
2023/06/17 10:06:08;;;;;;;5.10;3.40;;;;;;;34.40;25.41;99652.98;105637;1254;60530;-75
2023/06/17 10:08:48;;;;;;;5.60;3.60;;;;;;;34.56;25.36;99649.17;105695;1261;60324;-77
2023/06/17 10:11:20;;;;;;;6.50;3.50;;;;;;;34.69;24.87;99650.27;105697;1262;67472;-76
2023/06/17 10:14:03;;;;;;;9.70;3.20;;;;;;;34.74;24.50;99646.79;105659;1254;60873;-76
2023/06/17 10:16:31;;;;;;;;;;;;;;;34.82;24.29;99647.06;105421;1261;66258;-76
2023/06/17 10:18:59;;;;;;;5.60;3.10;;;;;;;34.92;24.46;99646.25;105656;1253;60536;-76
2023/06/17 10:21:27;;;;;;;4.10;3.30;;;;;;;35.04;24.52;99646.11;105704;1259;60473;-75
2023/06/17 10:23:55;;;;;;;19.30;3.50;;;;;;;35.13;24.33;99642.48;105789;1260;67970;-77
2023/06/17 10:26:23;;;;;;;4.70;3.70;;;;;;;35.22;23.94;99646.45;105700;1255;60336;-75
2023/06/17 10:28:54;;;;;;;4.20;3.30;;;;;;;35.35;23.78;99648.02;105636;1259;65647;-75
2023/06/17 10:31:27;;;;;;;5.10;3.40;;;;;;;35.46;24.02;99646.63;105584;1260;60529;-75
2023/06/17 10:33:55;;;;;;;;;;;;;;;35.59;24.29;99647.46;105723;1259;60518;-76
2023/06/17 10:36:23;;;;;;;4.10;3.60;;;;;;;35.78;23.62;99648.45;105671;1260;67813;-76
2023/06/17 10:39:09;;;;;;;4.00;3.60;;;;;;;35.90;22.60;99643.80;105665;1254;60684;-76
2023/06/17 10:41:44;;;;;;;5.10;3.40;;;;;;;35.95;23.22;99645.04;105636;1259;66242;-76
2023/06/17 10:44:25;;;;;;;6.70;3.50;;;;;;;36.08;23.60;99650.54;105519;1259;60419;-75
2023/06/17 10:46:53;;;;;;;4.00;3.50;;;;;;;36.21;23.26;99649.92;105698;1260;60498;-76
2023/06/17 10:49:21;;;;;;;8.10;3.40;;;;;;;36.32;22.97;99648.52;105757;1254;67216;-75
2023/06/17 10:51:50;;;;;;;3.90;3.40;;;;;;;36.39;22.17;99644.97;105543;1253;60813;-76
2023/06/17 10:54:29;;;;;;;8.80;3.30;;;;;;;36.37;22.20;99643.42;105509;1259;65894;-75
2023/06/17 10:56:57;;;;;;;6.90;3.60;;;;;;;36.42;22.87;99641.66;105564;1260;60530;-76
2023/06/17 10:59:28;;;;;;;5.30;3.30;;;;;;;36.56;22.66;99639.84;105390;1254;60532;-76
2023/06/17 11:02:01;;;;;;;4.90;3.30;;;;;;;36.71;22.61;99638.27;105710;1260;66902;-76
2023/06/17 11:04:32;;;;;;;3.80;3.20;;;;;;;36.87;22.36;99635.13;105662;1254;61032;-76
2023/06/17 11:07:00;;;;;;;8.50;3.30;;;;;;;37.04;22.16;99630.40;105426;1254;66667;-76
2023/06/17 11:09:29;;;;;;;5.60;3.40;;;;;;;37.23;22.00;99629.48;105589;1255;60498;-76
2023/06/17 11:11:57;;;;;;;5.70;3.20;;;;;;;37.40;21.33;99627.20;105723;1258;60417;-75
2023/06/17 11:14:26;;;;;;;6.20;3.30;;;;;;;37.41;21.56;99626.77;105688;1258;67716;-74
2023/06/17 11:16:54;;;;;;;4.10;3.00;;;;;;;37.51;21.44;99624.36;105668;1254;60901;-75
2023/06/17 11:19:22;;;;;;;4.90;3.20;;;;;;;37.65;21.22;99625.41;105378;1261;66734;-76
2023/06/17 11:22:03;;;;;;;7.80;3.60;;;;;;;37.81;21.24;99627.39;105708;1260;60990;-76
2023/06/17 11:24:32;;;;;;;7.00;3.20;;;;;;;37.91;21.25;99625.27;105737;1254;60635;-75
2023/06/17 11:27:00;;;;;;;7.40;3.30;;;;;;;37.97;20.77;99621.81;105618;1254;66847;-76
2023/06/17 11:29:29;;;;;;;5.10;3.30;;;;;;;38.04;20.71;99618.65;105761;1254;60988;-75
2023/06/17 11:32:00;;;;;;;3.60;3.20;;;;;;;38.09;20.58;99616.83;105633;1257;66719;-77
2023/06/17 11:34:31;;;;;;;4.20;3.50;;;;;;;38.10;20.27;99616.27;105549;1260;60519;-74